sensor_id;sensor_type;location;lat;lon;timestamp;temperature;humidity
5723;DHT22;2886;49.722;8.612;2023-12-22T00:00:18;5.00;99.90
5723;DHT22;2886;49.722;8.612;2023-12-22T00:02:44;5.00;99.90
5723;DHT22;2886;49.722;8.612;2023-12-22T00:05:10;5.00;99.90
5723;DHT22;2886;49.722;8.612;2023-12-22T00:07:35;5.00;99.90
5723;DHT22;2886;49.722;8.612;2023-12-22T00:10:01;5.00;99.90
5723;DHT22;2886;49.722;8.612;2023-12-22T00:12:27;4.90;99.90
5723;DHT22;2886;49.722;8.612;2023-12-22T00:14:53;4.90;99.90
5723;DHT22;2886;49.722;8.612;2023-12-22T00:17:19;5.00;99.90
5723;DHT22;2886;49.722;8.612;2023-12-22T00:19:44;5.00;99.90
5723;DHT22;2886;49.722;8.612;2023-12-22T00:22:10;5.00;99.90
5723;DHT22;2886;49.722;8.612;2023-12-22T00:24:36;5.00;99.90
5723;DHT22;2886;49.722;8.612;2023-12-22T00:27:01;4.90;99.90
5723;DHT22;2886;49.722;8.612;2023-12-22T00:29:28;4.90;99.90
5723;DHT22;2886;49.722;8.612;2023-12-22T00:31:54;4.90;99.90
5723;DHT22;2886;49.722;8.612;2023-12-22T00:34:22;5.00;99.90
5723;DHT22;2886;49.722;8.612;2023-12-22T00:36:47;5.00;99.90
5723;DHT22;2886;49.722;8.612;2023-12-22T00:39:13;5.00;99.90
5723;DHT22;2886;49.722;8.612;2023-12-22T00:41:39;4.90;99.90
5723;DHT22;2886;49.722;8.612;2023-12-22T00:44:04;4.90;99.90
5723;DHT22;2886;49.722;8.612;2023-12-22T00:46:30;4.90;99.90
5723;DHT22;2886;49.722;8.612;2023-12-22T00:48:56;4.90;99.90
5723;DHT22;2886;49.722;8.612;2023-12-22T00:51:21;4.80;99.90
5723;DHT22;2886;49.722;8.612;2023-12-22T00:53:47;4.80;99.90
5723;DHT22;2886;49.722;8.612;2023-12-22T00:56:12;4.80;99.90
5723;DHT22;2886;49.722;8.612;2023-12-22T00:58:39;4.70;99.90
5723;DHT22;2886;49.722;8.612;2023-12-22T01:01:05;4.70;99.90
5723;DHT22;2886;49.722;8.612;2023-12-22T01:03:30;4.70;99.90
5723;DHT22;2886;49.722;8.612;2023-12-22T01:05:56;4.70;99.90
5723;DHT22;2886;49.722;8.612;2023-12-22T01:08:22;4.80;99.90
5723;DHT22;2886;49.722;8.612;2023-12-22T01:10:47;4.80;99.90
5723;DHT22;2886;49.722;8.612;2023-12-22T01:13:13;4.90;99.90
5723;DHT22;2886;49.722;8.612;2023-12-22T01:15:39;4.90;99.90
5723;DHT22;2886;49.722;8.612;2023-12-22T01:18:04;5.00;99.90
5723;DHT22;2886;49.722;8.612;2023-12-22T01:20:30;5.00;99.90
5723;DHT22;2886;49.722;8.612;2023-12-22T01:22:56;5.00;99.90
5723;DHT22;2886;49.722;8.612;2023-12-22T01:25:21;5.00;99.90
5723;DHT22;2886;49.722;8.612;2023-12-22T01:27:47;5.00;99.90
5723;DHT22;2886;49.722;8.612;2023-12-22T01:30:14;5.10;99.90
5723;DHT22;2886;49.722;8.612;2023-12-22T01:32:40;5.10;99.90
5723;DHT22;2886;49.722;8.612;2023-12-22T01:35:05;5.10;99.90
5723;DHT22;2886;49.722;8.612;2023-12-22T01:37:36;5.10;99.90
5723;DHT22;2886;49.722;8.612;2023-12-22T01:40:03;5.10;99.90
5723;DHT22;2886;49.722;8.612;2023-12-22T01:42:29;5.20;99.90
5723;DHT22;2886;49.722;8.612;2023-12-22T01:44:55;5.20;99.90
5723;DHT22;2886;49.722;8.612;2023-12-22T01:47:20;5.10;99.90
5723;DHT22;2886;49.722;8.612;2023-12-22T01:49:47;5.10;99.90
5723;DHT22;2886;49.722;8.612;2023-12-22T01:52:14;5.10;99.90
5723;DHT22;2886;49.722;8.612;2023-12-22T01:54:40;5.10;99.90
5723;DHT22;2886;49.722;8.612;2023-12-22T01:57:06;5.20;99.90
5723;DHT22;2886;49.722;8.612;2023-12-22T01:59:33;5.10;99.90
5723;DHT22;2886;49.722;8.612;2023-12-22T02:02:02;5.10;99.90
5723;DHT22;2886;49.722;8.612;2023-12-22T02:04:28;5.20;99.90
5723;DHT22;2886;49.722;8.612;2023-12-22T02:06:55;5.10;99.90
5723;DHT22;2886;49.722;8.612;2023-12-22T02:09:22;5.20;99.90
5723;DHT22;2886;49.722;8.612;2023-12-22T02:11:47;5.20;99.90
5723;DHT22;2886;49.722;8.612;2023-12-22T02:14:13;5.30;99.90
5723;DHT22;2886;49.722;8.612;2023-12-22T02:16:43;5.30;99.90
5723;DHT22;2886;49.722;8.612;2023-12-22T02:22:05;5.30;99.90
5723;DHT22;2886;49.722;8.612;2023-12-22T02:24:31;5.40;99.90
5723;DHT22;2886;49.722;8.612;2023-12-22T02:27:15;5.40;99.90
5723;DHT22;2886;49.722;8.612;2023-12-22T02:29:48;5.40;99.90
5723;DHT22;2886;49.722;8.612;2023-12-22T02:32:22;5.40;99.90
5723;DHT22;2886;49.722;8.612;2023-12-22T02:34:51;5.30;99.90
5723;DHT22;2886;49.722;8.612;2023-12-22T02:37:18;5.30;99.90
5723;DHT22;2886;49.722;8.612;2023-12-22T02:39:45;5.30;99.90
5723;DHT22;2886;49.722;8.612;2023-12-22T02:42:12;5.30;99.90
5723;DHT22;2886;49.722;8.612;2023-12-22T02:44:38;5.40;99.90
5723;DHT22;2886;49.722;8.612;2023-12-22T02:47:04;5.40;99.90
5723;DHT22;2886;49.722;8.612;2023-12-22T02:49:30;5.40;99.90
5723;DHT22;2886;49.722;8.612;2023-12-22T02:51:55;5.40;99.90
5723;DHT22;2886;49.722;8.612;2023-12-22T02:54:21;5.40;99.90
5723;DHT22;2886;49.722;8.612;2023-12-22T02:56:47;5.40;99.90
5723;DHT22;2886;49.722;8.612;2023-12-22T02:59:13;5.40;99.90
5723;DHT22;2886;49.722;8.612;2023-12-22T03:01:39;5.50;99.90
5723;DHT22;2886;49.722;8.612;2023-12-22T03:04:04;5.50;99.90
5723;DHT22;2886;49.722;8.612;2023-12-22T03:06:30;5.50;99.90
5723;DHT22;2886;49.722;8.612;2023-12-22T03:08:55;5.50;99.90
5723;DHT22;2886;49.722;8.612;2023-12-22T03:11:21;5.50;99.90
5723;DHT22;2886;49.722;8.612;2023-12-22T03:13:47;5.50;99.90
5723;DHT22;2886;49.722;8.612;2023-12-22T03:16:12;5.50;99.90
5723;DHT22;2886;49.722;8.612;2023-12-22T03:18:38;5.50;99.90
5723;DHT22;2886;49.722;8.612;2023-12-22T03:21:04;5.50;99.90
5723;DHT22;2886;49.722;8.612;2023-12-22T03:23:30;5.50;99.90
5723;DHT22;2886;49.722;8.612;2023-12-22T03:25:56;5.50;99.90
5723;DHT22;2886;49.722;8.612;2023-12-22T03:28:21;5.50;99.90
5723;DHT22;2886;49.722;8.612;2023-12-22T03:30:47;5.50;99.90
5723;DHT22;2886;49.722;8.612;2023-12-22T03:33:13;5.50;99.90
5723;DHT22;2886;49.722;8.612;2023-12-22T03:35:38;5.50;99.90
5723;DHT22;2886;49.722;8.612;2023-12-22T03:38:04;5.50;99.90
5723;DHT22;2886;49.722;8.612;2023-12-22T03:40:29;5.50;99.90
5723;DHT22;2886;49.722;8.612;2023-12-22T03:42:55;5.60;99.90
5723;DHT22;2886;49.722;8.612;2023-12-22T03:45:21;5.60;99.90
5723;DHT22;2886;49.722;8.612;2023-12-22T03:47:47;5.60;99.90
5723;DHT22;2886;49.722;8.612;2023-12-22T03:50:12;5.60;99.90
5723;DHT22;2886;49.722;8.612;2023-12-22T03:52:38;5.70;99.90
5723;DHT22;2886;49.722;8.612;2023-12-22T03:55:04;5.70;99.90
5723;DHT22;2886;49.722;8.612;2023-12-22T03:57:30;5.70;99.90
5723;DHT22;2886;49.722;8.612;2023-12-22T03:59:55;5.70;99.90
5723;DHT22;2886;49.722;8.612;2023-12-22T04:02:21;5.70;99.90
5723;DHT22;2886;49.722;8.612;2023-12-22T04:04:46;5.70;99.90
5723;DHT22;2886;49.722;8.612;2023-12-22T04:07:12;5.70;99.90
5723;DHT22;2886;49.722;8.612;2023-12-22T04:09:38;5.70;99.90
5723;DHT22;2886;49.722;8.612;2023-12-22T04:12:06;5.70;99.90
5723;DHT22;2886;49.722;8.612;2023-12-22T04:14:32;5.70;99.90
5723;DHT22;2886;49.722;8.612;2023-12-22T04:16:58;5.70;99.90
5723;DHT22;2886;49.722;8.612;2023-12-22T04:19:23;5.70;99.90
5723;DHT22;2886;49.722;8.612;2023-12-22T04:21:49;5.70;99.90
5723;DHT22;2886;49.722;8.612;2023-12-22T04:24:15;5.70;99.90
5723;DHT22;2886;49.722;8.612;2023-12-22T04:26:40;5.70;99.90
5723;DHT22;2886;49.722;8.612;2023-12-22T04:29:07;5.70;99.90
5723;DHT22;2886;49.722;8.612;2023-12-22T04:31:33;5.70;99.90
5723;DHT22;2886;49.722;8.612;2023-12-22T04:33:58;5.70;99.90
5723;DHT22;2886;49.722;8.612;2023-12-22T04:36:24;5.70;99.90
5723;DHT22;2886;49.722;8.612;2023-12-22T04:38:49;5.70;99.90
5723;DHT22;2886;49.722;8.612;2023-12-22T04:41:15;5.60;99.90
5723;DHT22;2886;49.722;8.612;2023-12-22T04:43:40;5.70;99.90
5723;DHT22;2886;49.722;8.612;2023-12-22T04:46:06;5.60;99.90
5723;DHT22;2886;49.722;8.612;2023-12-22T04:48:32;5.60;99.90
5723;DHT22;2886;49.722;8.612;2023-12-22T04:50:58;5.50;99.90
5723;DHT22;2886;49.722;8.612;2023-12-22T04:53:24;5.50;99.90
5723;DHT22;2886;49.722;8.612;2023-12-22T04:55:50;5.60;99.90
5723;DHT22;2886;49.722;8.612;2023-12-22T04:58:15;5.60;99.90
5723;DHT22;2886;49.722;8.612;2023-12-22T05:00:41;5.60;99.90
5723;DHT22;2886;49.722;8.612;2023-12-22T05:03:07;5.60;99.90
5723;DHT22;2886;49.722;8.612;2023-12-22T05:05:32;5.60;99.90
5723;DHT22;2886;49.722;8.612;2023-12-22T05:07:58;5.70;99.90
5723;DHT22;2886;49.722;8.612;2023-12-22T05:10:24;5.70;99.90
5723;DHT22;2886;49.722;8.612;2023-12-22T05:12:50;5.70;99.90
5723;DHT22;2886;49.722;8.612;2023-12-22T05:15:15;5.80;99.90
5723;DHT22;2886;49.722;8.612;2023-12-22T05:17:41;5.70;99.90
5723;DHT22;2886;49.722;8.612;2023-12-22T05:20:07;5.70;99.90
5723;DHT22;2886;49.722;8.612;2023-12-22T05:22:36;5.80;99.90
5723;DHT22;2886;49.722;8.612;2023-12-22T05:25:02;5.80;99.90
5723;DHT22;2886;49.722;8.612;2023-12-22T05:27:28;5.80;99.90
5723;DHT22;2886;49.722;8.612;2023-12-22T05:29:53;5.80;99.90
5723;DHT22;2886;49.722;8.612;2023-12-22T05:32:19;5.80;99.90
5723;DHT22;2886;49.722;8.612;2023-12-22T05:34:44;5.70;99.90
5723;DHT22;2886;49.722;8.612;2023-12-22T05:37:10;5.70;99.90
5723;DHT22;2886;49.722;8.612;2023-12-22T05:39:37;5.70;99.90
5723;DHT22;2886;49.722;8.612;2023-12-22T05:42:02;5.70;99.90
5723;DHT22;2886;49.722;8.612;2023-12-22T05:44:28;5.70;99.90
5723;DHT22;2886;49.722;8.612;2023-12-22T05:46:56;5.70;99.90
5723;DHT22;2886;49.722;8.612;2023-12-22T05:49:22;5.70;99.90
5723;DHT22;2886;49.722;8.612;2023-12-22T05:51:48;5.70;99.90
5723;DHT22;2886;49.722;8.612;2023-12-22T05:54:15;5.70;99.90
5723;DHT22;2886;49.722;8.612;2023-12-22T05:56:42;5.70;99.90
5723;DHT22;2886;49.722;8.612;2023-12-22T05:59:08;5.70;99.90
5723;DHT22;2886;49.722;8.612;2023-12-22T06:01:34;5.70;99.90
5723;DHT22;2886;49.722;8.612;2023-12-22T06:03:59;5.60;99.90
5723;DHT22;2886;49.722;8.612;2023-12-22T06:06:25;5.70;99.90
5723;DHT22;2886;49.722;8.612;2023-12-22T06:08:53;5.70;99.90
5723;DHT22;2886;49.722;8.612;2023-12-22T06:11:18;5.70;99.90
5723;DHT22;2886;49.722;8.612;2023-12-22T06:13:44;5.80;99.90
5723;DHT22;2886;49.722;8.612;2023-12-22T06:16:16;5.80;99.90
5723;DHT22;2886;49.722;8.612;2023-12-22T06:18:43;5.70;99.90
5723;DHT22;2886;49.722;8.612;2023-12-22T06:21:09;5.80;99.90
5723;DHT22;2886;49.722;8.612;2023-12-22T06:23:36;5.90;99.90
5723;DHT22;2886;49.722;8.612;2023-12-22T06:26:07;5.80;99.90
5723;DHT22;2886;49.722;8.612;2023-12-22T06:28:33;5.80;99.90
5723;DHT22;2886;49.722;8.612;2023-12-22T06:30:58;5.80;99.90
5723;DHT22;2886;49.722;8.612;2023-12-22T06:33:24;5.80;99.90
5723;DHT22;2886;49.722;8.612;2023-12-22T06:35:49;5.90;99.90
5723;DHT22;2886;49.722;8.612;2023-12-22T06:38:19;6.00;99.90
5723;DHT22;2886;49.722;8.612;2023-12-22T06:40:44;5.90;99.90
5723;DHT22;2886;49.722;8.612;2023-12-22T06:43:12;5.90;99.90
5723;DHT22;2886;49.722;8.612;2023-12-22T06:45:38;6.00;99.90
5723;DHT22;2886;49.722;8.612;2023-12-22T06:48:06;6.00;99.90
5723;DHT22;2886;49.722;8.612;2023-12-22T06:50:31;6.00;99.90
5723;DHT22;2886;49.722;8.612;2023-12-22T06:52:57;6.00;99.90
5723;DHT22;2886;49.722;8.612;2023-12-22T06:55:23;6.10;99.90
5723;DHT22;2886;49.722;8.612;2023-12-22T06:57:49;6.10;99.90
5723;DHT22;2886;49.722;8.612;2023-12-22T07:00:15;6.10;99.90
5723;DHT22;2886;49.722;8.612;2023-12-22T07:02:43;6.10;99.90
5723;DHT22;2886;49.722;8.612;2023-12-22T07:07:46;6.10;99.90
5723;DHT22;2886;49.722;8.612;2023-12-22T07:10:12;6.10;99.90
5723;DHT22;2886;49.722;8.612;2023-12-22T07:12:38;6.10;99.90
5723;DHT22;2886;49.722;8.612;2023-12-22T07:15:05;6.10;99.90
5723;DHT22;2886;49.722;8.612;2023-12-22T07:17:32;6.20;99.90
5723;DHT22;2886;49.722;8.612;2023-12-22T07:19:58;6.20;99.90
5723;DHT22;2886;49.722;8.612;2023-12-22T07:22:23;6.20;99.90
5723;DHT22;2886;49.722;8.612;2023-12-22T07:24:49;6.20;99.90
5723;DHT22;2886;49.722;8.612;2023-12-22T07:27:17;6.20;99.90
5723;DHT22;2886;49.722;8.612;2023-12-22T07:29:42;6.20;99.90
5723;DHT22;2886;49.722;8.612;2023-12-22T07:32:08;6.20;99.90
5723;DHT22;2886;49.722;8.612;2023-12-22T07:34:34;6.20;99.90
5723;DHT22;2886;49.722;8.612;2023-12-22T07:37:01;6.20;99.90
5723;DHT22;2886;49.722;8.612;2023-12-22T07:39:26;6.20;99.90
5723;DHT22;2886;49.722;8.612;2023-12-22T07:41:52;6.30;99.90
5723;DHT22;2886;49.722;8.612;2023-12-22T07:44:17;6.30;99.90
5723;DHT22;2886;49.722;8.612;2023-12-22T07:46:43;6.30;99.90
5723;DHT22;2886;49.722;8.612;2023-12-22T07:49:08;6.40;99.90
5723;DHT22;2886;49.722;8.612;2023-12-22T07:51:34;6.40;99.90
5723;DHT22;2886;49.722;8.612;2023-12-22T07:53:59;6.40;99.90
5723;DHT22;2886;49.722;8.612;2023-12-22T07:56:25;6.40;99.90
5723;DHT22;2886;49.722;8.612;2023-12-22T07:58:51;6.50;99.90
5723;DHT22;2886;49.722;8.612;2023-12-22T08:01:16;6.50;99.90
5723;DHT22;2886;49.722;8.612;2023-12-22T08:03:42;6.40;99.90
5723;DHT22;2886;49.722;8.612;2023-12-22T08:06:07;6.50;99.90
5723;DHT22;2886;49.722;8.612;2023-12-22T08:08:33;6.50;99.90
5723;DHT22;2886;49.722;8.612;2023-12-22T08:10:59;6.50;99.90
5723;DHT22;2886;49.722;8.612;2023-12-22T08:13:25;6.60;99.90
5723;DHT22;2886;49.722;8.612;2023-12-22T08:15:51;6.60;99.90
5723;DHT22;2886;49.722;8.612;2023-12-22T08:18:16;6.60;99.90
5723;DHT22;2886;49.722;8.612;2023-12-22T08:20:42;6.60;99.90
5723;DHT22;2886;49.722;8.612;2023-12-22T08:23:08;6.60;99.90
5723;DHT22;2886;49.722;8.612;2023-12-22T08:25:34;6.70;99.90
5723;DHT22;2886;49.722;8.612;2023-12-22T08:27:59;6.70;99.90
5723;DHT22;2886;49.722;8.612;2023-12-22T08:30:26;6.70;99.90
5723;DHT22;2886;49.722;8.612;2023-12-22T08:32:51;6.80;99.90
5723;DHT22;2886;49.722;8.612;2023-12-22T08:35:17;6.70;99.90
5723;DHT22;2886;49.722;8.612;2023-12-22T08:37:43;6.80;99.90
5723;DHT22;2886;49.722;8.612;2023-12-22T08:40:08;6.80;99.90
5723;DHT22;2886;49.722;8.612;2023-12-22T08:42:34;6.80;99.90
5723;DHT22;2886;49.722;8.612;2023-12-22T08:45:00;6.80;99.90
5723;DHT22;2886;49.722;8.612;2023-12-22T08:47:25;6.90;99.90
5723;DHT22;2886;49.722;8.612;2023-12-22T08:49:51;6.80;99.90
5723;DHT22;2886;49.722;8.612;2023-12-22T08:52:17;6.80;99.90
5723;DHT22;2886;49.722;8.612;2023-12-22T08:54:42;6.80;99.90
5723;DHT22;2886;49.722;8.612;2023-12-22T08:57:08;6.90;99.90
5723;DHT22;2886;49.722;8.612;2023-12-22T08:59:34;6.90;99.90
5723;DHT22;2886;49.722;8.612;2023-12-22T09:02:00;6.90;99.90
5723;DHT22;2886;49.722;8.612;2023-12-22T09:04:25;7.00;99.90
5723;DHT22;2886;49.722;8.612;2023-12-22T09:06:51;7.00;99.90
5723;DHT22;2886;49.722;8.612;2023-12-22T09:09:17;7.00;99.90
5723;DHT22;2886;49.722;8.612;2023-12-22T09:11:43;7.00;99.90
5723;DHT22;2886;49.722;8.612;2023-12-22T09:14:10;7.00;99.90
5723;DHT22;2886;49.722;8.612;2023-12-22T09:16:36;7.00;99.90
5723;DHT22;2886;49.722;8.612;2023-12-22T09:19:02;7.10;99.90
5723;DHT22;2886;49.722;8.612;2023-12-22T09:21:28;7.10;99.90
5723;DHT22;2886;49.722;8.612;2023-12-22T09:23:53;7.10;99.90
5723;DHT22;2886;49.722;8.612;2023-12-22T09:26:19;7.10;99.90
5723;DHT22;2886;49.722;8.612;2023-12-22T09:28:45;7.10;99.90
5723;DHT22;2886;49.722;8.612;2023-12-22T09:31:11;7.10;99.90
5723;DHT22;2886;49.722;8.612;2023-12-22T09:33:38;7.10;99.90
5723;DHT22;2886;49.722;8.612;2023-12-22T09:36:05;7.20;99.90
5723;DHT22;2886;49.722;8.612;2023-12-22T09:38:31;7.20;99.90
5723;DHT22;2886;49.722;8.612;2023-12-22T09:40:57;7.20;99.90
5723;DHT22;2886;49.722;8.612;2023-12-22T09:43:23;7.20;99.90
5723;DHT22;2886;49.722;8.612;2023-12-22T09:45:49;7.20;99.90
5723;DHT22;2886;49.722;8.612;2023-12-22T09:48:17;7.20;99.90
5723;DHT22;2886;49.722;8.612;2023-12-22T09:50:44;7.30;99.90
5723;DHT22;2886;49.722;8.612;2023-12-22T09:53:13;7.30;99.90
5723;DHT22;2886;49.722;8.612;2023-12-22T09:55:42;7.40;99.90
5723;DHT22;2886;49.722;8.612;2023-12-22T09:58:10;7.40;99.90
5723;DHT22;2886;49.722;8.612;2023-12-22T10:00:36;7.40;99.90
5723;DHT22;2886;49.722;8.612;2023-12-22T10:03:06;7.40;99.90
5723;DHT22;2886;49.722;8.612;2023-12-22T10:05:32;7.40;99.90
5723;DHT22;2886;49.722;8.612;2023-12-22T10:08:00;7.50;99.90
5723;DHT22;2886;49.722;8.612;2023-12-22T10:10:27;7.50;99.90
5723;DHT22;2886;49.722;8.612;2023-12-22T10:12:54;7.50;99.90
5723;DHT22;2886;49.722;8.612;2023-12-22T10:15:21;7.60;99.90
5723;DHT22;2886;49.722;8.612;2023-12-22T10:17:50;7.60;99.90
5723;DHT22;2886;49.722;8.612;2023-12-22T10:20:16;7.60;99.90
5723;DHT22;2886;49.722;8.612;2023-12-22T10:22:42;7.70;99.90
5723;DHT22;2886;49.722;8.612;2023-12-22T10:25:08;7.70;99.90
5723;DHT22;2886;49.722;8.612;2023-12-22T10:27:36;7.70;99.90
5723;DHT22;2886;49.722;8.612;2023-12-22T10:30:03;7.80;99.90
5723;DHT22;2886;49.722;8.612;2023-12-22T10:32:29;7.80;99.90
5723;DHT22;2886;49.722;8.612;2023-12-22T10:34:55;7.80;99.90
5723;DHT22;2886;49.722;8.612;2023-12-22T10:37:23;7.80;99.90
5723;DHT22;2886;49.722;8.612;2023-12-22T10:39:52;7.80;99.90
5723;DHT22;2886;49.722;8.612;2023-12-22T10:42:18;7.90;99.90
5723;DHT22;2886;49.722;8.612;2023-12-22T10:44:45;7.90;99.90
5723;DHT22;2886;49.722;8.612;2023-12-22T10:47:10;7.90;99.90
5723;DHT22;2886;49.722;8.612;2023-12-22T10:49:36;8.00;99.90
5723;DHT22;2886;49.722;8.612;2023-12-22T10:52:02;8.00;99.90
5723;DHT22;2886;49.722;8.612;2023-12-22T10:54:29;8.00;99.90
5723;DHT22;2886;49.722;8.612;2023-12-22T10:56:59;8.10;99.90
5723;DHT22;2886;49.722;8.612;2023-12-22T10:59:31;8.10;99.90
5723;DHT22;2886;49.722;8.612;2023-12-22T11:01:58;8.10;99.90
5723;DHT22;2886;49.722;8.612;2023-12-22T11:04:29;8.10;99.90
5723;DHT22;2886;49.722;8.612;2023-12-22T11:06:57;8.10;99.90
5723;DHT22;2886;49.722;8.612;2023-12-22T11:09:26;8.20;99.90
5723;DHT22;2886;49.722;8.612;2023-12-22T11:11:56;8.20;99.90
5723;DHT22;2886;49.722;8.612;2023-12-22T11:14:23;8.20;99.90
5723;DHT22;2886;49.722;8.612;2023-12-22T11:16:52;8.20;99.90
5723;DHT22;2886;49.722;8.612;2023-12-22T11:19:19;8.20;99.90
5723;DHT22;2886;49.722;8.612;2023-12-22T11:21:47;8.20;99.90
5723;DHT22;2886;49.722;8.612;2023-12-22T11:24:14;8.20;99.90
5723;DHT22;2886;49.722;8.612;2023-12-22T11:26:42;8.20;99.90
5723;DHT22;2886;49.722;8.612;2023-12-22T11:29:10;8.20;99.90
5723;DHT22;2886;49.722;8.612;2023-12-22T11:31:37;8.20;99.90
5723;DHT22;2886;49.722;8.612;2023-12-22T11:34:05;8.20;99.90
5723;DHT22;2886;49.722;8.612;2023-12-22T11:36:32;8.20;99.90
5723;DHT22;2886;49.722;8.612;2023-12-22T11:38:59;8.30;99.90
5723;DHT22;2886;49.722;8.612;2023-12-22T11:41:28;8.30;99.90
5723;DHT22;2886;49.722;8.612;2023-12-22T11:43:54;8.30;99.90
5723;DHT22;2886;49.722;8.612;2023-12-22T11:46:22;8.30;99.90
5723;DHT22;2886;49.722;8.612;2023-12-22T11:48:50;8.30;99.90
5723;DHT22;2886;49.722;8.612;2023-12-22T11:51:17;8.30;99.90
5723;DHT22;2886;49.722;8.612;2023-12-22T11:53:43;8.30;99.90
5723;DHT22;2886;49.722;8.612;2023-12-22T11:56:10;8.20;99.90
5723;DHT22;2886;49.722;8.612;2023-12-22T11:58:40;8.20;99.90
5723;DHT22;2886;49.722;8.612;2023-12-22T12:01:11;8.20;99.90
5723;DHT22;2886;49.722;8.612;2023-12-22T12:03:41;8.20;99.90
5723;DHT22;2886;49.722;8.612;2023-12-22T12:06:13;8.20;99.90
5723;DHT22;2886;49.722;8.612;2023-12-22T12:08:40;8.20;99.90
5723;DHT22;2886;49.722;8.612;2023-12-22T12:11:05;8.20;99.90
5723;DHT22;2886;49.722;8.612;2023-12-22T12:13:33;8.20;99.90
5723;DHT22;2886;49.722;8.612;2023-12-22T12:16:03;8.20;99.90
5723;DHT22;2886;49.722;8.612;2023-12-22T12:18:32;8.20;99.90
5723;DHT22;2886;49.722;8.612;2023-12-22T12:20:59;8.30;99.90
5723;DHT22;2886;49.722;8.612;2023-12-22T12:23:27;8.30;99.90
5723;DHT22;2886;49.722;8.612;2023-12-22T12:25:54;8.30;99.90
5723;DHT22;2886;49.722;8.612;2023-12-22T12:28:29;8.30;99.90
5723;DHT22;2886;49.722;8.612;2023-12-22T12:31:04;8.30;99.90
5723;DHT22;2886;49.722;8.612;2023-12-22T12:33:29;8.30;99.90
5723;DHT22;2886;49.722;8.612;2023-12-22T12:36:02;8.30;99.90
5723;DHT22;2886;49.722;8.612;2023-12-22T12:41:28;8.40;99.90
5723;DHT22;2886;49.722;8.612;2023-12-22T12:43:55;8.40;99.90
5723;DHT22;2886;49.722;8.612;2023-12-22T12:46:22;8.40;99.90
5723;DHT22;2886;49.722;8.612;2023-12-22T12:48:48;8.40;99.90
5723;DHT22;2886;49.722;8.612;2023-12-22T12:51:14;8.50;99.90
5723;DHT22;2886;49.722;8.612;2023-12-22T12:53:39;8.50;99.90
5723;DHT22;2886;49.722;8.612;2023-12-22T12:56:05;8.50;99.90
5723;DHT22;2886;49.722;8.612;2023-12-22T12:58:32;8.50;99.90
5723;DHT22;2886;49.722;8.612;2023-12-22T13:01:08;8.60;99.90
5723;DHT22;2886;49.722;8.612;2023-12-22T13:03:53;8.60;99.90
5723;DHT22;2886;49.722;8.612;2023-12-22T13:06:19;8.70;99.90
5723;DHT22;2886;49.722;8.612;2023-12-22T13:08:51;8.70;99.90
5723;DHT22;2886;49.722;8.612;2023-12-22T13:11:26;8.80;99.90
5723;DHT22;2886;49.722;8.612;2023-12-22T13:13:52;8.80;99.90
5723;DHT22;2886;49.722;8.612;2023-12-22T13:16:25;8.90;99.90
5723;DHT22;2886;49.722;8.612;2023-12-22T13:18:53;8.90;99.90
5723;DHT22;2886;49.722;8.612;2023-12-22T13:21:19;8.90;99.90
5723;DHT22;2886;49.722;8.612;2023-12-22T13:23:44;8.90;99.90
5723;DHT22;2886;49.722;8.612;2023-12-22T13:26:19;8.90;99.90
5723;DHT22;2886;49.722;8.612;2023-12-22T13:28:46;8.90;99.90
5723;DHT22;2886;49.722;8.612;2023-12-22T13:31:14;8.90;99.90
5723;DHT22;2886;49.722;8.612;2023-12-22T13:33:43;8.90;99.90
5723;DHT22;2886;49.722;8.612;2023-12-22T13:36:10;9.00;99.90
5723;DHT22;2886;49.722;8.612;2023-12-22T13:38:36;9.00;99.90
5723;DHT22;2886;49.722;8.612;2023-12-22T13:41:02;9.00;99.90
5723;DHT22;2886;49.722;8.612;2023-12-22T13:43:29;9.00;99.90
5723;DHT22;2886;49.722;8.612;2023-12-22T13:45:55;9.00;99.90
5723;DHT22;2886;49.722;8.612;2023-12-22T13:48:21;9.00;99.90
5723;DHT22;2886;49.722;8.612;2023-12-22T13:50:57;9.10;99.90
5723;DHT22;2886;49.722;8.612;2023-12-22T13:53:23;9.10;99.90
5723;DHT22;2886;49.722;8.612;2023-12-22T13:55:58;9.10;99.90
5723;DHT22;2886;49.722;8.612;2023-12-22T13:58:25;9.10;99.90
5723;DHT22;2886;49.722;8.612;2023-12-22T14:00:51;9.10;99.90
5723;DHT22;2886;49.722;8.612;2023-12-22T14:03:17;9.10;99.90
5723;DHT22;2886;49.722;8.612;2023-12-22T14:05:50;9.20;99.90
5723;DHT22;2886;49.722;8.612;2023-12-22T14:08:17;9.20;99.90
5723;DHT22;2886;49.722;8.612;2023-12-22T14:10:46;9.20;99.90
5723;DHT22;2886;49.722;8.612;2023-12-22T14:13:15;9.20;99.90
5723;DHT22;2886;49.722;8.612;2023-12-22T14:15:43;9.20;99.90
5723;DHT22;2886;49.722;8.612;2023-12-22T14:18:10;9.20;99.90
5723;DHT22;2886;49.722;8.612;2023-12-22T14:20:36;9.30;99.90
5723;DHT22;2886;49.722;8.612;2023-12-22T14:23:01;9.30;99.90
5723;DHT22;2886;49.722;8.612;2023-12-22T14:25:27;9.30;99.90
5723;DHT22;2886;49.722;8.612;2023-12-22T14:27:53;9.30;99.90
5723;DHT22;2886;49.722;8.612;2023-12-22T14:30:23;9.20;99.90
5723;DHT22;2886;49.722;8.612;2023-12-22T14:32:49;9.20;99.90
5723;DHT22;2886;49.722;8.612;2023-12-22T14:35:14;9.30;99.90
5723;DHT22;2886;49.722;8.612;2023-12-22T14:37:40;9.40;99.90
5723;DHT22;2886;49.722;8.612;2023-12-22T14:40:06;9.40;99.90
5723;DHT22;2886;49.722;8.612;2023-12-22T14:42:32;9.40;99.90
5723;DHT22;2886;49.722;8.612;2023-12-22T14:44:58;9.40;99.90
5723;DHT22;2886;49.722;8.612;2023-12-22T14:47:23;9.40;99.90
5723;DHT22;2886;49.722;8.612;2023-12-22T14:49:49;9.40;99.90
5723;DHT22;2886;49.722;8.612;2023-12-22T14:52:15;9.40;99.90
5723;DHT22;2886;49.722;8.612;2023-12-22T14:54:40;9.40;99.90
5723;DHT22;2886;49.722;8.612;2023-12-22T14:57:06;9.40;99.90
5723;DHT22;2886;49.722;8.612;2023-12-22T14:59:32;9.40;99.90
5723;DHT22;2886;49.722;8.612;2023-12-22T15:01:57;9.40;99.90
5723;DHT22;2886;49.722;8.612;2023-12-22T15:04:23;9.30;99.90
5723;DHT22;2886;49.722;8.612;2023-12-22T15:06:49;9.30;99.90
5723;DHT22;2886;49.722;8.612;2023-12-22T15:09:15;9.40;99.90
5723;DHT22;2886;49.722;8.612;2023-12-22T15:11:45;9.40;99.90
5723;DHT22;2886;49.722;8.612;2023-12-22T15:14:14;9.40;99.90
5723;DHT22;2886;49.722;8.612;2023-12-22T15:16:41;9.30;99.90
5723;DHT22;2886;49.722;8.612;2023-12-22T15:19:10;9.40;99.90
5723;DHT22;2886;49.722;8.612;2023-12-22T15:21:35;9.40;99.90
5723;DHT22;2886;49.722;8.612;2023-12-22T15:24:02;9.30;99.90
5723;DHT22;2886;49.722;8.612;2023-12-22T15:26:28;9.40;99.90
5723;DHT22;2886;49.722;8.612;2023-12-22T15:28:54;9.40;99.90
5723;DHT22;2886;49.722;8.612;2023-12-22T15:31:19;9.30;99.90
5723;DHT22;2886;49.722;8.612;2023-12-22T15:33:45;9.30;99.90
5723;DHT22;2886;49.722;8.612;2023-12-22T15:36:15;9.40;99.90
5723;DHT22;2886;49.722;8.612;2023-12-22T15:38:41;9.30;99.90
5723;DHT22;2886;49.722;8.612;2023-12-22T15:41:07;9.30;99.90
5723;DHT22;2886;49.722;8.612;2023-12-22T15:43:32;9.30;99.90
5723;DHT22;2886;49.722;8.612;2023-12-22T15:45:58;9.30;99.90
5723;DHT22;2886;49.722;8.612;2023-12-22T15:48:24;9.30;99.90
5723;DHT22;2886;49.722;8.612;2023-12-22T15:50:50;9.30;99.90
5723;DHT22;2886;49.722;8.612;2023-12-22T15:53:16;9.40;99.90
5723;DHT22;2886;49.722;8.612;2023-12-22T15:55:41;9.40;99.90
5723;DHT22;2886;49.722;8.612;2023-12-22T15:58:07;9.40;99.90
5723;DHT22;2886;49.722;8.612;2023-12-22T16:00:33;9.30;99.90
5723;DHT22;2886;49.722;8.612;2023-12-22T16:02:58;9.40;99.90
5723;DHT22;2886;49.722;8.612;2023-12-22T16:05:24;9.30;99.90
5723;DHT22;2886;49.722;8.612;2023-12-22T16:07:49;9.30;99.90
5723;DHT22;2886;49.722;8.612;2023-12-22T16:10:15;9.30;99.90
5723;DHT22;2886;49.722;8.612;2023-12-22T16:12:41;9.40;99.90
5723;DHT22;2886;49.722;8.612;2023-12-22T16:15:09;9.40;99.90
5723;DHT22;2886;49.722;8.612;2023-12-22T16:17:35;9.40;99.90
5723;DHT22;2886;49.722;8.612;2023-12-22T16:20:01;9.30;99.90